Time;durP1;ratioP1;P1;durP2;ratioP2;P2;SDS_P1;SDS_P2;PMS_P1;PMS_P2;Temp;Humidity;BMP_temperature;BMP_pressure;BME280_temperature;BME280_humidity;BME280_pressure;Samples;Min_cycle;Max_cycle;Signal;HPM_P1;HPM_P2
2023/05/07 00:01:52;;;;;;;2.47;1.00;;;18.00;72.20;;;;;;2370908;53;21000;-74
2023/05/07 00:04:18;;;;;;;2.00;0.80;;;18.00;72.20;;;;;;2371183;53;21700;-73
2023/05/07 00:06:44;;;;;;;2.17;1.00;;;18.00;72.30;;;;;;2623757;52;21340;-74
2023/05/07 00:09:11;;;;;;;1.80;0.88;;;18.00;72.20;;;;;;2371363;53;20926;-77
2023/05/07 00:11:37;;;;;;;3.17;1.02;;;17.90;72.20;;;;;;2623650;52;21312;-74
2023/05/07 00:14:03;;;;;;;2.22;0.95;;;17.90;72.20;;;;;;2373901;53;21894;-74
2023/05/07 00:16:30;;;;;;;3.55;1.00;;;17.90;72.30;;;;;;2622969;52;20926;-73
2023/05/07 00:18:59;;;;;;;2.70;0.85;;;17.90;72.40;;;;;;2622839;52;20977;-74
2023/05/07 00:21:26;;;;;;;2.15;0.98;;;17.90;72.50;;;;;;2624036;52;20941;-75
2023/05/07 00:23:53;;;;;;;1.70;0.80;;;17.80;72.40;;;;;;2623406;52;20921;-75
2023/05/07 00:26:24;;;;;;;2.50;1.10;;;17.90;72.40;;;;;;2350721;54;21588;-74
2023/05/07 00:28:54;;;;;;;2.10;1.00;;;17.80;72.10;;;;;;2373476;53;21023;-74
2023/05/07 00:31:23;;;;;;;1.87;0.95;;;17.80;72.30;;;;;;2383716;53;21032;-77
2023/05/07 00:34:02;;;;;;;1.95;0.90;;;17.70;72.30;;;;;;2374339;53;21539;-76
2023/05/07 00:36:35;;;;;;;2.35;0.93;;;17.70;71.90;;;;;;2615676;52;21744;-77
2023/05/07 00:39:07;;;;;;;5.05;1.02;;;17.70;72.30;;;;;;2374029;53;20960;-74
2023/05/07 00:41:35;;;;;;;2.03;1.00;;;17.70;72.20;;;;;;2622556;52;21570;-77
2023/05/07 00:44:04;;;;;;;2.70;1.20;;;17.70;72.40;;;;;;2371408;52;21505;-74
2023/05/07 00:46:34;;;;;;;2.17;1.02;;;17.60;72.20;;;;;;2611200;52;20920;-74
2023/05/07 00:49:02;;;;;;;1.98;1.05;;;17.60;72.20;;;;;;2622678;52;21003;-76
2023/05/07 00:51:28;;;;;;;1.60;0.80;;;17.70;72.60;;;;;;2596311;52;20966;-76
2023/05/07 00:54:03;;;;;;;3.60;1.10;;;17.70;72.60;;;;;;2378069;53;21440;-74
2023/05/07 00:56:39;;;;;;;1.90;0.98;;;17.60;72.40;;;;;;2617771;52;20944;-78
2023/05/07 00:59:15;;;;;;;2.40;0.93;;;17.60;72.60;;;;;;2369109;53;20937;-74
2023/05/07 01:01:42;;;;;;;4.15;1.10;;;17.70;72.40;;;;;;2620076;52;20969;-74
2023/05/07 01:04:11;;;;;;;2.60;1.10;;;17.60;72.60;;;;;;2623646;52;21001;-73
2023/05/07 01:06:42;;;;;;;4.68;1.67;;;17.50;72.40;;;;;;2623157;52;20906;-74
2023/05/07 01:09:09;;;;;;;2.83;1.10;;;17.60;72.50;;;;;;2621371;52;20922;-74
2023/05/07 01:11:55;;;;;;;2.42;1.20;;;17.60;72.70;;;;;;2372872;53;20932;-78
2023/05/07 01:14:29;;;;;;;2.55;0.90;;;17.60;72.60;;;;;;2372116;53;20926;-73
2023/05/07 01:16:58;;;;;;;2.33;1.10;;;17.60;72.50;;;;;;2373255;53;20964;-75
2023/05/07 01:19:38;;;;;;;2.12;1.12;;;17.60;72.70;;;;;;2623013;52;21492;-74
2023/05/07 01:22:08;;;;;;;3.78;1.30;;;17.60;72.50;;;;;;2622669;52;20982;-77
2023/05/07 01:24:35;;;;;;;2.10;1.10;;;17.50;72.50;;;;;;2621595;52;20993;-74
2023/05/07 01:27:07;;;;;;;2.12;0.93;;;17.50;72.70;;;;;;2622916;52;20995;-74
2023/05/07 01:29:36;;;;;;;2.33;1.05;;;17.50;72.50;;;;;;2607866;52;20957;-74
2023/05/07 01:32:05;;;;;;;2.80;1.08;;;17.50;72.60;;;;;;2622844;52;20958;-74
2023/05/07 01:34:33;;;;;;;2.67;0.95;;;17.50;72.60;;;;;;2623455;52;20914;-74
2023/05/07 01:36:59;;;;;;;3.22;0.93;;;17.50;72.60;;;;;;2623200;52;21411;-75
2023/05/07 01:39:37;;;;;;;3.70;1.33;;;17.50;72.60;;;;;;2623711;52;20949;-74
2023/05/07 01:42:04;;;;;;;2.42;0.95;;;17.50;72.60;;;;;;2622134;52;20959;-76
2023/05/07 01:44:37;;;;;;;2.78;0.90;;;17.40;72.60;;;;;;2373519;53;20959;-74
2023/05/07 01:47:06;;;;;;;2.40;1.08;;;17.40;72.60;;;;;;2373334;53;21513;-74
2023/05/07 01:49:36;;;;;;;2.12;0.93;;;17.40;72.50;;;;;;2601616;52;21054;-74
2023/05/07 01:52:05;;;;;;;1.77;0.90;;;17.40;72.30;;;;;;2370233;53;20945;-76
2023/05/07 01:54:35;;;;;;;1.90;0.80;;;17.40;72.50;;;;;;2371551;53;20938;-76
2023/05/07 01:57:04;;;;;;;2.17;1.00;;;17.30;72.40;;;;;;2373587;53;20957;-74
2023/05/07 01:59:53;;;;;;;2.42;1.10;;;17.30;72.40;;;;;;2622538;52;20938;-74
2023/05/07 02:02:22;;;;;;;2.78;1.33;;;17.30;72.40;;;;;;2622331;52;20938;-77
2023/05/07 02:04:57;;;;;;;5.30;1.33;;;17.30;72.40;;;;;;2595679;52;20958;-77
2023/05/07 02:07:24;;;;;;;2.53;1.23;;;17.20;72.30;;;;;;2624975;52;20977;-74
2023/05/07 02:10:00;;;;;;;2.97;1.37;;;17.20;72.40;;;;;;2381493;53;20975;-74
2023/05/07 02:12:35;;;;;;;2.92;1.23;;;17.20;72.20;;;;;;2587304;52;21081;-78
2023/05/07 02:15:02;;;;;;;2.25;1.15;;;17.20;72.10;;;;;;2621595;52;20933;-74
2023/05/07 02:17:32;;;;;;;1.55;0.82;;;17.20;72.50;;;;;;2623213;52;21698;-74
2023/05/07 02:20:13;;;;;;;2.30;1.10;;;17.20;72.60;;;;;;2621167;52;20994;-74
2023/05/07 02:22:39;;;;;;;2.80;1.33;;;17.10;72.50;;;;;;2623398;52;20997;-74
2023/05/07 02:25:06;;;;;;;3.20;1.17;;;17.20;72.60;;;;;;2623900;52;20882;-78
2023/05/07 02:27:33;;;;;;;3.08;1.20;;;17.10;72.50;;;;;;2374430;53;20919;-74
2023/05/07 02:30:00;;;;;;;2.62;1.23;;;17.10;72.50;;;;;;2623320;52;20998;-74
2023/05/07 02:32:26;;;;;;;2.92;0.90;;;17.10;72.50;;;;;;2370523;53;20989;-74
2023/05/07 02:34:53;;;;;;;2.62;0.95;;;17.00;72.40;;;;;;2624111;52;20950;-74
2023/05/07 02:37:19;;;;;;;2.03;1.00;;;17.00;72.40;;;;;;2623905;52;20964;-76
2023/05/07 02:39:47;;;;;;;2.30;1.20;;;17.00;72.40;;;;;;2370636;53;20989;-79
2023/05/07 02:42:13;;;;;;;3.47;1.10;;;17.00;72.30;;;;;;2370461;53;21371;-74
2023/05/07 02:44:39;;;;;;;2.25;1.30;;;16.90;72.30;;;;;;2623610;52;21829;-74
2023/05/07 02:47:08;;;;;;;2.53;1.48;;;16.90;72.30;;;;;;2370586;53;20922;-75
2023/05/07 02:49:34;;;;;;;1.90;0.98;;;16.90;72.30;;;;;;2623659;52;20910;-74
2023/05/07 02:52:03;;;;;;;2.10;1.12;;;16.90;72.40;;;;;;2623666;52;21061;-74
2023/05/07 02:54:36;;;;;;;3.22;0.90;;;16.90;72.30;;;;;;2623240;52;20977;-76
2023/05/07 02:57:16;;;;;;;3.62;1.25;;;16.80;72.20;;;;;;2371200;53;21013;-74
2023/05/07 02:59:42;;;;;;;4.10;1.17;;;16.80;72.30;;;;;;2623730;52;20962;-75
2023/05/07 03:02:11;;;;;;;2.28;1.02;;;16.80;72.30;;;;;;2333280;53;2247939;-74
2023/05/07 03:04:49;;;;;;;2.00;0.85;;;16.80;72.20;;;;;;2623308;52;20965;-74
2023/05/07 03:07:19;;;;;;;2.62;1.15;;;16.70;72.20;;;;;;2379099;53;21867;-75
2023/05/07 03:09:56;;;;;;;2.65;1.10;;;16.70;72.10;;;;;;2370289;52;21106;-75
2023/05/07 03:12:31;;;;;;;2.60;1.20;;;16.70;72.20;;;;;;2364293;53;21401;-74
2023/05/07 03:15:00;;;;;;;2.75;1.50;;;16.70;72.30;;;;;;2623918;52;21479;-77
2023/05/07 03:17:30;;;;;;;2.47;1.23;;;16.60;72.30;;;;;;2351375;54;21033;-75
2023/05/07 03:20:06;;;;;;;2.30;1.20;;;16.60;72.30;;;;;;2623678;52;20989;-73
2023/05/07 03:22:36;;;;;;;3.05;1.50;;;16.60;72.20;;;;;;2614721;52;21500;-77
2023/05/07 03:25:05;;;;;;;2.65;1.27;;;16.60;72.50;;;;;;2370246;53;20938;-75
2023/05/07 03:27:35;;;;;;;2.70;1.40;;;16.50;72.40;;;;;;2622964;52;20917;-74
2023/05/07 03:30:06;;;;;;;2.30;1.20;;;16.50;72.50;;;;;;2373125;53;20969;-77
2023/05/07 03:32:33;;;;;;;2.60;1.20;;;16.50;72.40;;;;;;2620736;52;20954;-76
2023/05/07 03:35:11;;;;;;;2.72;1.60;;;16.50;72.50;;;;;;2621136;52;20948;-74
2023/05/07 03:37:48;;;;;;;3.45;1.90;;;16.50;72.40;;;;;;2616310;52;21005;-76
2023/05/07 03:40:16;;;;;;;3.55;1.67;;;16.60;72.70;;;;;;2622438;52;20957;-74
2023/05/07 03:42:43;;;;;;;2.70;1.50;;;16.50;72.60;;;;;;2376651;53;20948;-74
2023/05/07 03:45:09;;;;;;;2.80;1.48;;;16.40;72.60;;;;;;2622163;52;21313;-75
2023/05/07 03:47:39;;;;;;;3.22;1.42;;;16.40;72.60;;;;;;2372517;53;21017;-75
2023/05/07 03:50:05;;;;;;;3.15;1.40;;;16.40;72.40;;;;;;2371940;53;20894;-74
2023/05/07 03:52:32;;;;;;;2.72;1.42;;;16.40;72.60;;;;;;2623012;52;20965;-74
2023/05/07 03:55:00;;;;;;;2.50;1.35;;;16.40;72.60;;;;;;2621659;52;20968;-74
2023/05/07 03:57:27;;;;;;;2.80;1.20;;;16.40;72.60;;;;;;2616922;52;20968;-74
2023/05/07 03:59:59;;;;;;;2.92;1.52;;;16.40;72.50;;;;;;2361869;53;21215;-75
2023/05/07 04:02:28;;;;;;;4.65;1.70;;;16.40;72.30;;;;;;2615568;52;20985;-76
2023/05/07 04:05:12;;;;;;;2.42;1.40;;;16.30;72.30;;;;;;2372255;53;21081;-74
2023/05/07 04:07:50;;;;;;;4.15;1.62;;;16.30;72.00;;;;;;2376237;53;20962;-74
2023/05/07 04:10:29;;;;;;;2.58;1.30;;;16.30;72.10;;;;;;2622319;52;20974;-74
2023/05/07 04:12:58;;;;;;;2.35;1.15;;;16.30;72.60;;;;;;2376242;53;20920;-76
2023/05/07 04:15:26;;;;;;;5.05;1.50;;;16.30;72.70;;;;;;2373119;53;21013;-77
2023/05/07 04:18:10;;;;;;;2.72;1.35;;;16.20;72.60;;;;;;2605908;52;20939;-74
2023/05/07 04:20:38;;;;;;;2.30;1.10;;;16.20;72.60;;;;;;2622840;52;20980;-74
2023/05/07 04:23:04;;;;;;;2.90;1.35;;;16.20;72.60;;;;;;2357032;52;21826;-74
2023/05/07 04:25:30;;;;;;;2.25;1.12;;;16.20;72.60;;;;;;2364306;53;20970;-74
2023/05/07 04:27:59;;;;;;;3.17;1.62;;;16.20;72.60;;;;;;2619578;52;21001;-77
2023/05/07 04:30:26;;;;;;;3.05;1.70;;;16.20;72.60;;;;;;2374042;53;20975;-76
2023/05/07 04:32:52;;;;;;;3.22;1.70;;;16.20;72.70;;;;;;2621902;52;20898;-73
2023/05/07 04:35:21;;;;;;;3.03;1.50;;;16.10;72.60;;;;;;2374223;53;20947;-75
2023/05/07 04:37:50;;;;;;;3.42;1.65;;;16.10;72.70;;;;;;2370027;53;21454;-76
2023/05/07 04:40:16;;;;;;;4.00;2.00;;;16.10;72.80;;;;;;2373959;53;20963;-75
2023/05/07 04:42:43;;;;;;;3.40;1.80;;;16.10;72.90;;;;;;2372944;53;20943;-75
2023/05/07 04:45:10;;;;;;;2.95;1.80;;;16.10;72.90;;;;;;2623291;52;20954;-74
2023/05/07 04:47:36;;;;;;;2.67;1.33;;;16.10;73.00;;;;;;2623185;52;20983;-78
2023/05/07 04:50:11;;;;;;;2.80;1.45;;;16.10;73.10;;;;;;2622605;52;21819;-75
2023/05/07 04:52:39;;;;;;;3.12;1.65;;;16.20;73.30;;;;;;2623351;52;21507;-77
2023/05/07 04:55:06;;;;;;;3.42;1.42;;;16.10;73.30;;;;;;2622927;52;21843;-76
2023/05/07 04:57:33;;;;;;;2.70;1.62;;;16.10;73.30;;;;;;2595586;52;20934;-74
2023/05/07 05:00:08;;;;;;;3.03;1.52;;;16.10;73.40;;;;;;2370786;53;21049;-77
2023/05/07 05:02:36;;;;;;;4.85;2.17;;;16.10;73.30;;;;;;2623428;52;20934;-75
2023/05/07 05:05:06;;;;;;;4.03;1.67;;;16.10;73.50;;;;;;2374036;53;21300;-75
2023/05/07 05:07:33;;;;;;;2.78;1.62;;;16.10;73.60;;;;;;2624161;52;20954;-74
2023/05/07 05:09:59;;;;;;;3.00;1.77;;;16.20;73.80;;;;;;2373079;52;20910;-75
2023/05/07 05:12:26;;;;;;;3.22;1.80;;;16.20;73.90;;;;;;2370946;53;20965;-75
2023/05/07 05:14:52;;;;;;;3.08;1.70;;;16.20;73.90;;;;;;2374084;53;21019;-74
2023/05/07 05:17:19;;;;;;;5.32;1.80;;;16.20;74.00;;;;;;2623461;52;20914;-73
2023/05/07 05:19:46;;;;;;;3.92;1.90;;;16.30;74.20;;;;;;2370065;53;21323;-74
2023/05/07 05:22:12;;;;;;;3.28;1.80;;;16.30;74.20;;;;;;2375873;53;20987;-75
2023/05/07 05:24:39;;;;;;;3.10;1.70;;;16.30;74.20;;;;;;2622244;52;21029;-74
2023/05/07 05:27:05;;;;;;;4.12;1.70;;;16.40;74.40;;;;;;2622521;52;21475;-78
2023/05/07 05:29:31;;;;;;;5.55;1.90;;;16.40;74.50;;;;;;2370521;53;20998;-75
2023/05/07 05:31:59;;;;;;;3.33;1.80;;;16.40;74.60;;;;;;2370527;53;20998;-74
2023/05/07 05:34:27;;;;;;;2.95;1.55;;;16.40;74.70;;;;;;2623428;52;20993;-75
2023/05/07 05:36:55;;;;;;;3.05;1.80;;;16.50;74.80;;;;;;2370581;52;20998;-78
2023/05/07 05:39:23;;;;;;;3.33;1.60;;;16.50;74.90;;;;;;2370507;53;20985;-75
2023/05/07 05:41:49;;;;;;;3.22;2.03;;;16.60;75.00;;;;;;2369996;53;20978;-78
2023/05/07 05:44:15;;;;;;;3.10;2.03;;;16.60;75.10;;;;;;2623005;52;21005;-77
2023/05/07 05:46:41;;;;;;;3.05;1.75;;;16.70;75.20;;;;;;2372655;53;21452;-74
2023/05/07 05:49:08;;;;;;;4.80;2.00;;;16.70;75.30;;;;;;2370650;53;20902;-74
2023/05/07 05:51:35;;;;;;;3.65;1.77;;;16.80;75.40;;;;;;2370630;53;20926;-74
2023/05/07 05:54:02;;;;;;;4.55;1.83;;;16.80;75.40;;;;;;2623067;52;20970;-73
2023/05/07 05:56:28;;;;;;;4.00;1.77;;;16.90;75.60;;;;;;2623067;52;20916;-74
2023/05/07 05:58:54;;;;;;;3.70;2.10;;;16.90;75.60;;;;;;2623304;52;21095;-75
2023/05/07 06:01:21;;;;;;;3.00;1.73;;;17.00;75.80;;;;;;2623822;52;21015;-74
2023/05/07 06:03:47;;;;;;;3.22;1.60;;;17.00;75.80;;;;;;2373168;53;20994;-74
2023/05/07 06:06:14;;;;;;;2.95;1.80;;;17.10;75.90;;;;;;2623229;52;20906;-74
2023/05/07 06:08:41;;;;;;;3.58;1.77;;;17.10;76.00;;;;;;2370943;53;20906;-76
2023/05/07 06:11:07;;;;;;;3.70;1.90;;;17.20;76.10;;;;;;2370968;53;21798;-76
2023/05/07 06:13:34;;;;;;;3.17;2.08;;;17.30;76.30;;;;;;2371144;52;20958;-79
2023/05/07 06:16:01;;;;;;;3.70;2.33;;;17.30;76.30;;;;;;2623093;52;20964;-75
2023/05/07 06:18:27;;;;;;;4.72;2.17;;;17.40;76.50;;;;;;2622668;52;20973;-74
2023/05/07 06:20:53;;;;;;;3.25;1.95;;;17.50;76.60;;;;;;2371847;53;21449;-74
2023/05/07 06:23:20;;;;;;;4.40;2.08;;;17.60;76.70;;;;;;2372424;53;20930;-74
2023/05/07 06:25:49;;;;;;;4.53;2.55;;;17.60;76.60;;;;;;2371610;53;21796;-74
2023/05/07 06:28:17;;;;;;;3.60;2.20;;;17.70;76.50;;;;;;2623314;52;20930;-74
2023/05/07 06:30:44;;;;;;;3.25;1.90;;;17.80;76.70;;;;;;2371465;53;21229;-74
2023/05/07 06:33:11;;;;;;;3.55;2.10;;;17.90;77.50;;;;;;2596032;52;20970;-74
2023/05/07 06:35:39;;;;;;;3.37;1.83;;;18.00;76.90;;;;;;2371311;53;20902;-74
2023/05/07 06:38:06;;;;;;;3.80;2.08;;;18.00;76.90;;;;;;2375376;53;21137;-74
2023/05/07 06:40:32;;;;;;;3.00;1.73;;;18.10;76.90;;;;;;2372684;53;20997;-74
2023/05/07 06:42:59;;;;;;;6.00;2.72;;;18.20;76.90;;;;;;2623467;52;21600;-75
2023/05/07 06:45:25;;;;;;;3.15;2.08;;;18.20;76.80;;;;;;2623512;52;20966;-74
2023/05/07 06:47:51;;;;;;;2.85;1.95;;;18.40;76.90;;;;;;2623000;52;21017;-74
2023/05/07 06:50:18;;;;;;;4.10;2.62;;;18.40;76.80;;;;;;2371482;53;20993;-74
2023/05/07 06:52:44;;;;;;;4.72;2.30;;;18.50;76.80;;;;;;2374392;53;20923;-75
2023/05/07 06:55:11;;;;;;;4.90;2.78;;;18.50;76.60;;;;;;2371064;53;21009;-75
2023/05/07 06:57:37;;;;;;;3.67;2.05;;;18.60;76.70;;;;;;2623674;52;21486;-77
2023/05/07 07:00:06;;;;;;;3.90;2.35;;;18.70;76.80;;;;;;2370680;53;20962;-78
2023/05/07 07:02:33;;;;;;;4.57;2.70;;;18.70;76.80;;;;;;2624103;52;20958;-75
2023/05/07 07:04:59;;;;;;;4.90;3.20;;;18.80;77.00;;;;;;2373516;53;20903;-75
2023/05/07 07:07:26;;;;;;;5.65;2.97;;;18.90;77.00;;;;;;2375194;53;21024;-75
2023/05/07 07:09:55;;;;;;;3.87;2.47;;;19.00;77.00;;;;;;2602128;52;21392;-75
2023/05/07 07:12:24;;;;;;;3.40;2.22;;;19.00;77.10;;;;;;2623869;52;20928;-76
2023/05/07 07:14:50;;;;;;;3.58;2.37;;;19.10;77.20;;;;;;2379207;53;21482;-75
2023/05/07 07:17:17;;;;;;;4.00;2.45;;;19.20;77.30;;;;;;2363557;53;20936;-75
2023/05/07 07:19:43;;;;;;;3.90;2.50;;;19.30;77.30;;;;;;2370023;53;21814;-76
2023/05/07 07:22:10;;;;;;;3.62;2.28;;;19.40;77.10;;;;;;2624211;52;20904;-77
2023/05/07 07:24:39;;;;;;;4.43;2.67;;;19.40;77.10;;;;;;2371934;53;21699;-75
2023/05/07 07:27:05;;;;;;;3.22;2.15;;;19.50;77.10;;;;;;2371061;53;21821;-75
2023/05/07 07:29:31;;;;;;;5.30;2.70;;;19.60;77.00;;;;;;2371724;53;20927;-75
2023/05/07 07:31:58;;;;;;;4.30;2.45;;;19.70;76.90;;;;;;2374380;53;21399;-75
2023/05/07 07:34:24;;;;;;;3.45;2.17;;;19.70;76.90;;;;;;2371826;53;20918;-76
2023/05/07 07:36:51;;;;;;;3.80;2.20;;;19.80;76.90;;;;;;2624328;52;20926;-74
2023/05/07 07:39:17;;;;;;;3.62;2.22;;;19.90;77.10;;;;;;2371694;53;21743;-76
2023/05/07 07:41:44;;;;;;;4.62;2.30;;;19.90;77.10;;;;;;2623958;52;20930;-78
2023/05/07 07:44:12;;;;;;;4.55;2.60;;;20.00;77.40;;;;;;2624305;52;20934;-77
2023/05/07 07:46:40;;;;;;;4.85;3.08;;;20.10;77.70;;;;;;2371478;53;20982;-74
2023/05/07 07:49:06;;;;;;;6.05;3.20;;;20.20;78.00;;;;;;2623722;52;21002;-76
2023/05/07 07:51:32;;;;;;;4.95;2.87;;;20.30;78.30;;;;;;2624590;52;21742;-77
2023/05/07 07:53:58;;;;;;;4.47;2.65;;;20.40;78.60;;;;;;2374784;52;21444;-76
2023/05/07 07:56:25;;;;;;;4.78;2.50;;;20.50;78.90;;;;;;2371558;53;21010;-75
2023/05/07 07:58:51;;;;;;;3.87;2.45;;;20.60;79.10;;;;;;2370009;53;20937;-75
2023/05/07 08:01:21;;;;;;;3.97;2.15;;;20.80;79.30;;;;;;2372027;53;21763;-77
2023/05/07 08:03:47;;;;;;;4.57;2.53;;;20.90;79.00;;;;;;2375211;53;20939;-78
2023/05/07 08:06:13;;;;;;;4.32;2.37;;;21.10;79.30;;;;;;2623418;52;21017;-80
2023/05/07 08:08:49;;;;;;;3.85;2.40;;;21.20;79.00;;;;;;2624260;52;21841;-77
2023/05/07 08:11:16;;;;;;;3.40;1.77;;;21.30;78.70;;;;;;2371835;53;21859;-76
2023/05/07 08:13:42;;;;;;;3.30;2.00;;;21.40;78.50;;;;;;2624056;52;20959;-73
2023/05/07 08:16:09;;;;;;;3.70;2.08;;;21.50;78.40;;;;;;2371200;53;20914;-74
2023/05/07 08:18:36;;;;;;;3.95;2.40;;;21.60;78.30;;;;;;2624787;52;20970;-73
2023/05/07 08:21:02;;;;;;;4.78;2.28;;;21.70;78.40;;;;;;2370964;53;21064;-74
2023/05/07 08:23:29;;;;;;;4.00;2.60;;;21.80;78.50;;;;;;2624100;52;21278;-73
2023/05/07 08:25:55;;;;;;;3.55;2.33;;;21.90;78.50;;;;;;2623514;52;20978;-76
2023/05/07 08:28:24;;;;;;;6.32;2.20;;;22.00;78.50;;;;;;2371733;53;20914;-74
2023/05/07 08:30:51;;;;;;;3.22;2.00;;;22.20;78.20;;;;;;2371473;53;21323;-74
2023/05/07 08:33:17;;;;;;;4.05;2.25;;;22.30;78.50;;;;;;2624417;52;20909;-77
2023/05/07 08:35:44;;;;;;;3.35;1.95;;;22.40;78.40;;;;;;2595610;52;20961;-75
2023/05/07 08:38:10;;;;;;;3.47;2.08;;;22.50;78.30;;;;;;2372091;53;20993;-77
2023/05/07 08:40:37;;;;;;;2.72;1.73;;;22.60;78.10;;;;;;2623930;52;21084;-75
2023/05/07 08:43:05;;;;;;;4.28;2.42;;;22.70;78.10;;;;;;2622908;52;20938;-75
2023/05/07 08:45:33;;;;;;;4.12;2.40;;;22.80;77.80;;;;;;2371823;53;20914;-77
2023/05/07 08:48:01;;;;;;;4.43;2.80;;;22.80;77.70;;;;;;2623581;52;20933;-76
2023/05/07 08:50:30;;;;;;;3.83;2.28;;;22.90;77.70;;;;;;2624806;52;20898;-74
2023/05/07 08:52:56;;;;;;;3.20;2.17;;;23.00;77.70;;;;;;2370803;53;20932;-75
2023/05/07 08:55:23;;;;;;;4.87;2.50;;;23.10;77.50;;;;;;2371915;53;20941;-74
2023/05/07 08:57:53;;;;;;;3.62;2.65;;;23.20;77.30;;;;;;2623332;52;20934;-76
2023/05/07 09:00:30;;;;;;;4.00;2.28;;;23.20;76.60;;;;;;2623890;52;20906;-78
2023/05/07 09:03:03;;;;;;;5.05;3.25;;;23.30;76.40;;;;;;2624264;52;20964;-78
2023/05/07 09:05:38;;;;;;;6.10;2.78;;;23.40;76.40;;;;;;2387080;52;20917;-76
2023/05/07 09:08:14;;;;;;;4.32;2.40;;;23.50;76.90;;;;;;2622109;52;20886;-76
2023/05/07 09:10:41;;;;;;;3.72;1.77;;;23.50;76.90;;;;;;2371966;53;20950;-77
2023/05/07 09:13:07;;;;;;;6.12;2.20;;;23.60;76.80;;;;;;2375905;52;20999;-77
2023/05/07 09:15:39;;;;;;;4.50;2.05;;;23.70;76.50;;;;;;2613739;52;20918;-77
2023/05/07 09:18:08;;;;;;;3.55;2.03;;;23.80;76.20;;;;;;2371792;53;20970;-76
2023/05/07 09:20:43;;;;;;;3.30;2.10;;;23.80;75.90;;;;;;2617273;52;20989;-79
2023/05/07 09:23:10;;;;;;;4.62;2.45;;;23.90;76.10;;;;;;2376520;53;21429;-75
2023/05/07 09:25:38;;;;;;;4.65;2.00;;;24.00;75.90;;;;;;2371240;53;21029;-75
2023/05/07 09:28:09;;;;;;;2.80;1.83;;;24.00;75.60;;;;;;2374887;53;21011;-77
2023/05/07 09:30:35;;;;;;;4.80;2.00;;;24.10;75.80;;;;;;2350882;53;20978;-77
2023/05/07 09:33:03;;;;;;;3.80;2.30;;;24.20;75.60;;;;;;2380922;53;21046;-76
2023/05/07 09:35:40;;;;;;;2.78;1.55;;;24.30;75.10;;;;;;2365069;53;20973;-77
2023/05/07 09:38:08;;;;;;;3.30;1.80;;;24.30;75.10;;;;;;2622409;52;20938;-77
2023/05/07 09:40:35;;;;;;;3.83;1.90;;;24.40;74.70;;;;;;2623602;52;21074;-75
2023/05/07 09:43:14;;;;;;;3.92;2.00;;;24.40;74.60;;;;;;2369241;53;21482;-79
2023/05/07 09:45:43;;;;;;;4.57;1.95;;;24.50;72.90;;;;;;2373490;53;21014;-75
2023/05/07 09:48:16;;;;;;;2.92;1.90;;;24.50;74.30;;;;;;2623238;52;21158;-78
2023/05/07 09:50:52;;;;;;;3.40;1.77;;;24.60;74.30;;;;;;2624510;52;24853;-73
2023/05/07 09:53:20;;;;;;;2.87;1.80;;;24.70;72.90;;;;;;2371586;53;20938;-74
2023/05/07 09:55:49;;;;;;;3.72;2.00;;;24.70;74.20;;;;;;2371498;53;20982;-75
2023/05/07 09:58:40;;;;;;;3.40;1.80;;;24.70;74.20;;;;;;2621743;52;21495;-75
2023/05/07 10:01:11;;;;;;;3.00;1.77;;;24.80;74.00;;;;;;2372980;53;20965;-77
2023/05/07 10:03:44;;;;;;;5.53;2.10;;;24.80;73.60;;;;;;2374124;53;21261;-74
2023/05/07 10:08:03;;;;;;;2.83;1.65;;;24.90;73.30;;;;;;2377309;53;21050;-74
2023/05/07 10:10:35;;;;;;;3.05;1.70;;;25.00;71.10;;;;;;2372036;52;21005;-73
2023/05/07 10:13:27;;;;;;;3.85;1.83;;;25.00;73.30;;;;;;2623411;52;20922;-77
2023/05/07 10:15:54;;;;;;;3.30;1.70;;;25.00;73.20;;;;;;2345860;53;21355;-73
2023/05/07 10:18:29;;;;;;;3.00;1.80;;;25.10;73.20;;;;;;2623486;52;21030;-74
2023/05/07 10:20:56;;;;;;;3.10;1.80;;;25.10;73.10;;;;;;2373450;53;20907;-75
2023/05/07 10:23:33;;;;;;;;;;;;;;;;;;;;;
2023/05/07 10:26:09;;;;;;;3.83;2.20;;;25.10;73.50;;;;;;2623163;52;21800;-75
2023/05/07 10:28:44;;;;;;;4.10;2.33;;;25.20;73.20;;;;;;2373765;53;20933;-80
2023/05/07 10:34:20;;;;;;;4.28;2.67;;;25.20;73.40;;;;;;2612031;52;20938;-77
2023/05/07 10:36:58;;;;;;;4.37;2.35;;;25.40;72.40;;;;;;2371747;53;21069;-75
2023/05/07 10:39:30;;;;;;;3.00;1.90;;;25.50;74.40;;;;;;2624723;52;20950;-75
2023/05/07 10:42:09;;;;;;;3.35;1.83;;;25.60;73.90;;;;;;2623403;52;21764;-75
2023/05/07 10:44:41;;;;;;;3.95;2.30;;;25.70;73.60;;;;;;2622368;52;20983;-78
2023/05/07 10:47:13;;;;;;;4.03;2.00;;;25.70;73.40;;;;;;2351878;53;20993;-76
2023/05/07 10:51:22;;;;;;;4.07;2.25;;;25.70;74.30;;;;;;2617102;52;21864;-78
2023/05/07 10:53:49;;;;;;;3.70;1.70;;;25.90;71.70;;;;;;2627203;52;20892;-77
2023/05/07 10:56:33;;;;;;;3.05;2.00;;;26.00;74.00;;;;;;2604454;52;21936;-73
2023/05/07 10:59:34;;;;;;;3.28;1.87;;;26.00;71.20;;;;;;2372882;53;20927;-74
2023/05/07 11:02:14;;;;;;;3.05;1.70;;;26.10;70.90;;;;;;2620732;52;20978;-73
2023/05/07 11:04:41;;;;;;;3.20;1.83;;;26.10;72.70;;;;;;2376485;53;21005;-74
2023/05/07 11:07:27;;;;;;;3.45;2.17;;;26.20;73.00;;;;;;2622583;52;21432;-73
2023/05/07 11:10:10;;;;;;;3.35;2.08;;;26.30;71.50;;;;;;2623428;52;21013;-73
2023/05/07 11:12:47;;;;;;;3.10;1.95;;;26.40;70.80;;;;;;2374458;53;21007;-73
2023/05/07 11:15:15;;;;;;;3.80;1.92;;;26.40;71.20;;;;;;2366536;53;21016;-73
2023/05/07 11:17:57;;;;;;;4.20;2.50;;;26.40;72.80;;;;;;2623171;52;20991;-73
2023/05/07 11:20:52;;;;;;;4.00;2.22;;;26.50;70.70;;;;;;2623919;52;21015;-73
2023/05/07 11:26:50;;;;;;;3.20;1.87;;;26.50;70.50;;;;;;2623561;52;21006;-74
2023/05/07 11:29:21;;;;;;;3.50;2.00;;;26.70;70.90;;;;;;2371087;53;21003;-75
2023/05/07 11:31:52;;;;;;;3.47;2.05;;;26.70;72.50;;;;;;2374185;53;21681;-73
2023/05/07 11:34:23;;;;;;;3.17;2.17;;;26.80;72.50;;;;;;2623859;52;20915;-73
2023/05/07 11:36:49;;;;;;;3.67;2.22;;;26.80;72.00;;;;;;2370622;53;21848;-73
2023/05/07 11:40:16;;;;;;;4.60;2.50;;;26.80;72.10;;;;;;2372866;53;21764;-74
2023/05/07 11:42:43;;;;;;;3.95;2.62;;;26.80;68.90;;;;;;2369452;53;21711;-73
2023/05/07 11:45:09;;;;;;;4.00;2.60;;;26.80;71.60;;;;;;2622384;52;20938;-73
2023/05/07 11:47:36;;;;;;;5.60;2.60;;;26.90;71.50;;;;;;2370638;53;20961;-73
2023/05/07 11:50:10;;;;;;;2.75;1.80;;;26.90;71.40;;;;;;2622104;52;21017;-76
2023/05/07 11:52:36;;;;;;;4.20;2.62;;;26.90;71.50;;;;;;2623262;52;21677;-73
2023/05/07 11:55:04;;;;;;;4.53;2.80;;;26.90;71.30;;;;;;2370220;53;20978;-75
2023/05/07 11:57:32;;;;;;;5.10;2.80;;;26.90;70.80;;;;;;2623911;52;21042;-72
2023/05/07 11:59:59;;;;;;;3.50;2.35;;;26.90;70.90;;;;;;2370718;53;21010;-73
2023/05/07 12:02:28;;;;;;;4.47;2.65;;;26.90;70.70;;;;;;2624136;52;20970;-73
2023/05/07 12:04:55;;;;;;;3.42;2.25;;;26.90;70.60;;;;;;2370962;53;20942;-75
2023/05/07 12:07:23;;;;;;;3.50;2.17;;;26.90;70.50;;;;;;2623519;52;20952;-73
2023/05/07 12:09:50;;;;;;;4.43;2.62;;;26.90;70.30;;;;;;2370747;53;20918;-73
2023/05/07 12:12:17;;;;;;;4.22;2.87;;;26.80;69.60;;;;;;2623352;52;20925;-72
2023/05/07 12:14:44;;;;;;;4.35;2.87;;;26.80;69.30;;;;;;2623856;52;20958;-73
2023/05/07 12:17:14;;;;;;;3.67;2.60;;;26.80;69.20;;;;;;2622768;52;21490;-73
2023/05/07 12:19:42;;;;;;;4.22;2.40;;;26.70;69.30;;;;;;2371039;53;20954;-73
2023/05/07 12:22:08;;;;;;;3.92;2.47;;;26.70;70.30;;;;;;2370838;53;20982;-75
2023/05/07 12:25:19;;;;;;;3.65;2.37;;;26.70;69.80;;;;;;2371318;53;21920;-73
2023/05/07 12:27:51;;;;;;;4.47;2.10;;;26.70;68.00;;;;;;2624035;52;20977;-73
2023/05/07 12:30:18;;;;;;;3.42;2.30;;;26.60;69.30;;;;;;2370402;53;21712;-73
2023/05/07 12:32:45;;;;;;;4.35;2.22;;;26.60;70.00;;;;;;2624114;52;20942;-73
2023/05/07 12:35:11;;;;;;;2.70;1.60;;;26.50;69.70;;;;;;2622092;52;20918;-72
2023/05/07 12:37:37;;;;;;;3.25;1.92;;;26.40;70.00;;;;;;2624054;52;20981;-74
2023/05/07 12:40:11;;;;;;;2.85;1.90;;;26.40;70.10;;;;;;2370124;53;20997;-75
2023/05/07 12:42:37;;;;;;;3.50;2.35;;;26.40;68.80;;;;;;2624445;52;20938;-73
2023/05/07 12:45:15;;;;;;;3.78;2.10;;;26.30;69.70;;;;;;2623232;52;21395;-73
2023/05/07 12:47:47;;;;;;;3.15;2.10;;;26.30;68.40;;;;;;2623723;52;21029;-72
2023/05/07 12:50:17;;;;;;;3.60;2.28;;;26.20;68.50;;;;;;2623871;52;20970;-73
2023/05/07 12:52:48;;;;;;;4.53;2.40;;;26.10;69.20;;;;;;2372298;53;20942;-72
2023/05/07 12:55:15;;;;;;;3.65;2.20;;;26.10;69.80;;;;;;2372714;53;20985;-76
2023/05/07 12:57:42;;;;;;;4.45;2.28;;;26.00;70.10;;;;;;2374590;53;21005;-75
2023/05/07 13:00:09;;;;;;;3.00;1.60;;;26.00;70.10;;;;;;2372362;53;20933;-72
2023/05/07 13:02:39;;;;;;;3.55;2.10;;;26.00;70.40;;;;;;2373226;53;21009;-75
2023/05/07 13:05:06;;;;;;;5.32;2.72;;;26.00;69.80;;;;;;2624790;52;20898;-72
2023/05/07 13:07:32;;;;;;;4.00;2.08;;;26.00;70.10;;;;;;2624869;52;20930;-73
2023/05/07 13:09:58;;;;;;;3.40;1.70;;;25.90;69.80;;;;;;2371641;53;21457;-73
2023/05/07 13:12:25;;;;;;;2.75;1.52;;;25.90;69.80;;;;;;2624360;52;21357;-73